Time;durP1;ratioP1;P1;durP2;ratioP2;P2;SDS_P1;SDS_P2;PMS_P1;PMS_P2;Temp;Humidity;BMP_temperature;BMP_pressure;BME280_temperature;BME280_humidity;BME280_pressure;Samples;Min_cycle;Max_cycle;Signal;HPM_P1;HPM_P2
2023/08/14 00:00:14;;;;;;;6.77;2.10;;;;;;;;;;5048884;28;20027;-69
2023/08/14 00:02:40;;;;;;;8.65;2.30;;;;;;;;;;5045764;28;20282;-70
2023/08/14 00:05:05;;;;;;;6.05;2.63;;;;;;;;;;5032560;28;20478;-70
2023/08/14 00:07:30;;;;;;;16.90;2.50;;;;;;;;;;5038668;28;20031;-68
2023/08/14 00:09:56;;;;;;;5.78;1.95;;;;;;;;;;5052229;28;20429;-67
2023/08/14 00:12:21;;;;;;;7.65;1.90;;;;;;;;;;5039085;28;20017;-68
2023/08/14 00:14:46;;;;;;;6.45;2.10;;;;;;;;;;5052731;28;20036;-67
2023/08/14 00:17:12;;;;;;;6.65;2.28;;;;;;;;;;5047320;28;20017;-65
2023/08/14 00:19:37;;;;;;;7.95;2.00;;;;;;;;;;5032580;28;20021;-68
2023/08/14 00:22:02;;;;;;;13.83;3.07;;;;;;;;;;5045540;28;20052;-68
2023/08/14 00:24:27;;;;;;;5.50;2.15;;;;;;;;;;5051485;28;20319;-67
2023/08/14 00:26:53;;;;;;;8.45;2.13;;;;;;;;;;5052505;28;20013;-68
2023/08/14 00:29:18;;;;;;;5.68;2.20;;;;;;;;;;5039076;28;20013;-68
2023/08/14 00:31:43;;;;;;;5.70;2.20;;;;;;;;;;5052436;28;20017;-69
2023/08/14 00:34:08;;;;;;;6.25;2.30;;;;;;;;;;5033837;28;20364;-68
2023/08/14 00:36:33;;;;;;;8.43;2.40;;;;;;;;;;5019011;28;20017;-68
2023/08/14 00:38:59;;;;;;;5.97;2.40;;;;;;;;;;5040283;28;20374;-69
2023/08/14 00:41:24;;;;;;;8.95;2.33;;;;;;;;;;5052316;28;20143;-69
2023/08/14 00:43:51;;;;;;;6.43;2.40;;;;;;;;;;5045087;28;20017;-68
2023/08/14 00:46:16;;;;;;;3.72;1.73;;;;;;;;;;5043795;28;20371;-69
2023/08/14 00:48:42;;;;;;;7.15;2.13;;;;;;;;;;5046711;28;20040;-70
2023/08/14 00:51:07;;;;;;;6.90;2.53;;;;;;;;;;5036723;28;22268;-69
2023/08/14 00:53:32;;;;;;;6.82;2.03;;;;;;;;;;5045021;28;20039;-67
2023/08/14 00:55:59;;;;;;;4.93;1.92;;;;;;;;;;5021712;28;20040;-68
2023/08/14 00:58:25;;;;;;;4.47;2.05;;;;;;;;;;5032532;28;20013;-67
2023/08/14 01:00:50;;;;;;;4.63;2.00;;;;;;;;;;5031799;28;20033;-64
2023/08/14 01:03:17;;;;;;;7.90;2.55;;;;;;;;;;5050516;28;20024;-66
2023/08/14 01:05:42;;;;;;;5.18;2.30;;;;;;;;;;5051400;28;20013;-69
2023/08/14 01:08:07;;;;;;;9.38;1.85;;;;;;;;;;5032678;28;20021;-68
2023/08/14 01:10:48;;;;;;;7.63;2.38;;;;;;;;;;5046286;28;20017;-68
2023/08/14 01:13:19;;;;;;;11.00;2.80;;;;;;;;;;5044368;28;20025;-68
2023/08/14 01:15:46;;;;;;;5.30;2.38;;;;;;;;;;5046454;28;20024;-69
2023/08/14 01:18:15;;;;;;;6.25;2.33;;;;;;;;;;5043303;28;20017;-68
2023/08/14 01:20:41;;;;;;;5.07;2.65;;;;;;;;;;5031508;28;20021;-68
2023/08/14 01:23:26;;;;;;;9.75;2.75;;;;;;;;;;5040253;28;20021;-67
2023/08/14 01:25:52;;;;;;;6.03;2.42;;;;;;;;;;5049908;28;20013;-68
2023/08/14 01:28:18;;;;;;;9.43;3.00;;;;;;;;;;5051627;28;20027;-69
2023/08/14 01:30:43;;;;;;;7.72;2.97;;;;;;;;;;5051469;28;20032;-67
2023/08/14 01:33:09;;;;;;;8.05;2.53;;;;;;;;;;5042667;28;20144;-68
2023/08/14 01:35:47;;;;;;;6.82;2.78;;;;;;;;;;5033404;28;20471;-69
2023/08/14 01:38:16;;;;;;;9.27;2.92;;;;;;;;;;5024947;28;20027;-69
2023/08/14 01:41:05;;;;;;;4.68;2.60;;;;;;;;;;5050473;28;20047;-66
2023/08/14 01:43:33;;;;;;;4.95;2.55;;;;;;;;;;5050805;28;21558;-66
2023/08/14 01:45:58;;;;;;;14.85;3.03;;;;;;;;;;5050870;28;20021;-69
2023/08/14 01:48:24;;;;;;;10.57;3.28;;;;;;;;;;5036054;28;20017;-68
2023/08/14 01:53:24;;;;;;;6.80;2.70;;;;;;;;;;5095171;22;20051;-69
2023/08/14 01:55:58;;;;;;;9.55;2.67;;;;;;;;;;5068663;28;20024;-68
2023/08/14 01:58:40;;;;;;;7.80;2.78;;;;;;;;;;5069325;28;20044;-68
2023/08/14 02:01:11;;;;;;;9.05;2.80;;;;;;;;;;5066639;28;20081;-69
2023/08/14 02:03:36;;;;;;;11.90;2.75;;;;;;;;;;5047349;28;20506;-68
2023/08/14 02:06:02;;;;;;;6.90;2.65;;;;;;;;;;5048968;28;20016;-68
2023/08/14 02:08:27;;;;;;;10.40;2.38;;;;;;;;;;5030878;28;20100;-69
2023/08/14 02:10:52;;;;;;;8.27;2.53;;;;;;;;;;5048854;28;20028;-69
2023/08/14 02:13:17;;;;;;;6.93;2.67;;;;;;;;;;5048402;28;20016;-67
2023/08/14 02:15:46;;;;;;;7.30;2.80;;;;;;;;;;5048394;28;20090;-68
2023/08/14 02:18:12;;;;;;;6.50;3.13;;;;;;;;;;5040454;28;20070;-68
2023/08/14 02:20:44;;;;;;;9.02;2.60;;;;;;;;;;5043304;28;20039;-68
2023/08/14 02:23:09;;;;;;;6.97;2.80;;;;;;;;;;5048105;28;20094;-69
2023/08/14 02:25:38;;;;;;;8.43;3.13;;;;;;;;;;5048508;28;20442;-69
2023/08/14 02:28:04;;;;;;;10.65;3.10;;;;;;;;;;5048755;28;20016;-68
2023/08/14 02:30:29;;;;;;;18.58;3.55;;;;;;;;;;5048320;28;20031;-69
2023/08/14 02:32:54;;;;;;;6.10;3.22;;;;;;;;;;5047947;28;20044;-69
2023/08/14 02:35:19;;;;;;;12.15;3.67;;;;;;;;;;5034689;28;20100;-69
2023/08/14 02:37:45;;;;;;;9.88;2.95;;;;;;;;;;5047752;28;20043;-67
2023/08/14 02:40:10;;;;;;;8.38;2.60;;;;;;;;;;5048149;28;20160;-70
2023/08/14 02:42:44;;;;;;;8.90;3.10;;;;;;;;;;5048408;28;20032;-70
2023/08/14 02:45:10;;;;;;;6.68;3.13;;;;;;;;;;5048274;28;20013;-68
2023/08/14 02:47:35;;;;;;;8.35;3.53;;;;;;;;;;5048386;28;20024;-71
2023/08/14 02:50:00;;;;;;;8.73;3.20;;;;;;;;;;5048144;28;20080;-69
2023/08/14 02:52:25;;;;;;;8.43;2.90;;;;;;;;;;5047329;28;20108;-68
2023/08/14 02:54:51;;;;;;;9.70;2.97;;;;;;;;;;5047897;28;20450;-70
2023/08/14 02:57:16;;;;;;;10.75;3.70;;;;;;;;;;5047837;28;20093;-66
2023/08/14 02:59:41;;;;;;;9.18;3.20;;;;;;;;;;5047682;28;20082;-70
2023/08/14 03:02:06;;;;;;;16.35;3.03;;;;;;;;;;5047737;28;20017;-70
2023/08/14 03:04:32;;;;;;;8.25;3.50;;;;;;;;;;5047039;28;20009;-69
2023/08/14 03:06:57;;;;;;;6.40;3.40;;;;;;;;;;5047573;28;20358;-70
2023/08/14 03:09:22;;;;;;;9.57;3.60;;;;;;;;;;5047654;28;20505;-71
2023/08/14 03:11:47;;;;;;;11.98;4.00;;;;;;;;;;5047698;28;20008;-66
2023/08/14 03:14:12;;;;;;;6.35;3.10;;;;;;;;;;5046575;28;20013;-70
2023/08/14 03:16:38;;;;;;;10.68;2.92;;;;;;;;;;5047449;28;20025;-67
2023/08/14 03:19:03;;;;;;;8.45;3.15;;;;;;;;;;5041793;28;20022;-71
2023/08/14 03:21:31;;;;;;;7.63;2.97;;;;;;;;;;5047513;28;20070;-69
2023/08/14 03:23:56;;;;;;;10.82;3.25;;;;;;;;;;5046689;28;20025;-67
2023/08/14 03:26:21;;;;;;;13.95;3.42;;;;;;;;;;5047591;28;20016;-67
2023/08/14 03:28:47;;;;;;;7.03;3.88;;;;;;;;;;5047917;28;20021;-67
2023/08/14 03:31:12;;;;;;;7.68;2.80;;;;;;;;;;5047769;28;20495;-69
2023/08/14 03:33:37;;;;;;;5.55;2.95;;;;;;;;;;5046740;28;20485;-70
2023/08/14 03:36:03;;;;;;;8.77;3.40;;;;;;;;;;5038883;28;20041;-70
2023/08/14 03:38:28;;;;;;;10.18;3.08;;;;;;;;;;5046329;28;20127;-69
2023/08/14 03:40:53;;;;;;;11.10;3.40;;;;;;;;;;5049666;28;20036;-67
2023/08/14 03:43:18;;;;;;;5.78;3.05;;;;;;;;;;5044448;28;20052;-70
2023/08/14 03:45:43;;;;;;;8.00;3.28;;;;;;;;;;5047030;28;20056;-65
2023/08/14 03:48:09;;;;;;;8.63;4.15;;;;;;;;;;5045011;28;20017;-69
2023/08/14 03:50:43;;;;;;;6.93;3.50;;;;;;;;;;5046735;28;20013;-69
2023/08/14 03:53:09;;;;;;;18.10;4.40;;;;;;;;;;5045890;28;20029;-69
2023/08/14 03:55:34;;;;;;;8.15;3.85;;;;;;;;;;5046490;28;20036;-69
2023/08/14 03:57:59;;;;;;;6.45;3.40;;;;;;;;;;5046606;28;20036;-69
2023/08/14 04:00:25;;;;;;;7.53;3.08;;;;;;;;;;5046837;28;20082;-67
2023/08/14 04:02:50;;;;;;;14.90;3.28;;;;;;;;;;5047154;28;20028;-68
2023/08/14 04:05:15;;;;;;;8.38;3.53;;;;;;;;;;5047040;28;20118;-70
2023/08/14 04:07:40;;;;;;;8.82;3.53;;;;;;;;;;5047349;28;20243;-68
2023/08/14 04:10:06;;;;;;;9.57;3.60;;;;;;;;;;5046809;28;20451;-69
2023/08/14 04:12:31;;;;;;;6.70;3.05;;;;;;;;;;5047699;28;20381;-69
2023/08/14 04:15:11;;;;;;;8.27;3.13;;;;;;;;;;5046900;28;20481;-69
2023/08/14 04:17:36;;;;;;;14.85;3.42;;;;;;;;;;5046621;28;20105;-67
2023/08/14 04:20:01;;;;;;;10.75;3.58;;;;;;;;;;5046846;28;20387;-69
2023/08/14 04:22:26;;;;;;;8.85;3.33;;;;;;;;;;5049251;28;20504;-70
2023/08/14 04:24:51;;;;;;;13.32;4.88;;;;;;;;;;5050539;28;20522;-69
2023/08/14 04:27:17;;;;;;;11.40;4.03;;;;;;;;;;5050715;28;20029;-68
2023/08/14 04:29:42;;;;;;;7.93;3.42;;;;;;;;;;5050123;28;20017;-69
2023/08/14 04:32:18;;;;;;;10.73;3.75;;;;;;;;;;5051096;28;20100;-68
2023/08/14 04:34:44;;;;;;;12.85;3.15;;;;;;;;;;5046026;28;20090;-68
2023/08/14 04:37:23;;;;;;;8.68;3.50;;;;;;;;;;5037455;28;20021;-70
2023/08/14 04:40:10;;;;;;;6.68;2.92;;;;;;;;;;5039899;28;20023;-69
2023/08/14 04:42:34;;;;;;;6.80;3.10;;;;;;;;;;5049905;28;20063;-70
2023/08/14 04:45:02;;;;;;;7.07;3.47;;;;;;;;;;5058321;28;20504;-67
2023/08/14 04:47:27;;;;;;;10.48;3.45;;;;;;;;;;5045627;28;20017;-70
2023/08/14 04:49:53;;;;;;;7.80;3.08;;;;;;;;;;5050322;28;20020;-69
2023/08/14 04:52:20;;;;;;;9.07;3.90;;;;;;;;;;5048609;28;20029;-69
2023/08/14 04:54:45;;;;;;;9.20;3.40;;;;;;;;;;5047714;28;20021;-71
2023/08/14 04:57:10;;;;;;;8.32;3.50;;;;;;;;;;5050148;28;20455;-69
2023/08/14 04:59:36;;;;;;;12.00;3.47;;;;;;;;;;5050708;28;20096;-70
2023/08/14 05:02:01;;;;;;;7.90;3.30;;;;;;;;;;5049048;28;20109;-70
2023/08/14 05:04:26;;;;;;;8.23;3.85;;;;;;;;;;5049602;28;20621;-70
2023/08/14 05:06:51;;;;;;;9.10;3.67;;;;;;;;;;5049441;28;20017;-71
2023/08/14 05:09:17;;;;;;;8.20;3.78;;;;;;;;;;5049289;28;20029;-70
2023/08/14 05:11:43;;;;;;;12.25;3.60;;;;;;;;;;5050039;28;20017;-69
2023/08/14 05:14:08;;;;;;;13.70;3.78;;;;;;;;;;5049864;28;20020;-70
2023/08/14 05:16:33;;;;;;;14.55;3.90;;;;;;;;;;5049794;28;20017;-71
2023/08/14 05:18:58;;;;;;;9.75;3.55;;;;;;;;;;5049199;28;20716;-67
2023/08/14 05:21:23;;;;;;;7.10;3.17;;;;;;;;;;5048792;28;20425;-69
2023/08/14 05:23:49;;;;;;;5.82;3.10;;;;;;;;;;5048670;28;20483;-66
2023/08/14 05:26:14;;;;;;;14.20;3.05;;;;;;;;;;5047862;28;20684;-68
2023/08/14 05:28:39;;;;;;;6.70;3.53;;;;;;;;;;5049529;28;20017;-71
2023/08/14 05:31:07;;;;;;;14.00;4.03;;;;;;;;;;5047443;28;20015;-72
2023/08/14 05:33:33;;;;;;;16.83;5.13;;;;;;;;;;5047692;28;20047;-70
2023/08/14 05:35:58;;;;;;;6.72;3.10;;;;;;;;;;5038374;28;20435;-69
2023/08/14 05:38:23;;;;;;;6.47;2.97;;;;;;;;;;5043176;28;20374;-69
2023/08/14 05:40:51;;;;;;;10.88;3.25;;;;;;;;;;5049072;28;20024;-69
2023/08/14 05:43:17;;;;;;;6.25;3.35;;;;;;;;;;5047111;28;20020;-69
2023/08/14 05:45:43;;;;;;;12.00;4.38;;;;;;;;;;5045287;28;20029;-73
2023/08/14 05:48:08;;;;;;;6.75;3.22;;;;;;;;;;5042883;28;20442;-69
2023/08/14 05:50:34;;;;;;;6.25;2.85;;;;;;;;;;5046747;28;20085;-69
2023/08/14 05:53:03;;;;;;;12.27;3.85;;;;;;;;;;5048630;28;20497;-69
2023/08/14 05:55:28;;;;;;;;;;;;;;;;;;5049120;28;20060;-69
2023/08/14 05:57:55;;;;;;;13.50;3.22;;;;;;;;;;5048932;28;19986;-70
2023/08/14 06:00:22;;;;;;;5.82;2.92;;;;;;;;;;5036881;28;20025;-67
2023/08/14 06:02:50;;;;;;;7.53;3.25;;;;;;;;;;5049625;28;20017;-69
2023/08/14 06:05:15;;;;;;;11.75;3.30;;;;;;;;;;5053713;28;20501;-67
2023/08/14 06:07:41;;;;;;;5.85;3.03;;;;;;;;;;5049300;28;20033;-69
2023/08/14 06:10:06;;;;;;;10.93;3.15;;;;;;;;;;5048567;28;20016;-68
2023/08/14 06:12:34;;;;;;;13.15;3.03;;;;;;;;;;5048954;28;20359;-71
2023/08/14 06:15:02;;;;;;;6.43;2.75;;;;;;;;;;5047123;28;20088;-69
2023/08/14 06:17:28;;;;;;;6.78;2.67;;;;;;;;;;5049885;28;20035;-69
2023/08/14 06:19:54;;;;;;;10.88;2.80;;;;;;;;;;5047925;28;20021;-69
2023/08/14 06:22:20;;;;;;;6.22;2.63;;;;;;;;;;5049538;28;20025;-70
2023/08/14 06:24:45;;;;;;;12.30;3.00;;;;;;;;;;5048098;28;20147;-69
2023/08/14 06:27:11;;;;;;;10.77;2.40;;;;;;;;;;5048859;28;20036;-68
2023/08/14 06:29:37;;;;;;;6.68;2.30;;;;;;;;;;5048357;28;20020;-69
2023/08/14 06:32:05;;;;;;;7.20;2.33;;;;;;;;;;5049161;28;20013;-68
2023/08/14 06:34:30;;;;;;;14.00;3.30;;;;;;;;;;5040049;28;20498;-70
2023/08/14 06:36:55;;;;;;;6.93;2.10;;;;;;;;;;5046949;28;20027;-70
2023/08/14 06:39:21;;;;;;;9.23;2.50;;;;;;;;;;5047835;28;20481;-70
2023/08/14 06:41:47;;;;;;;6.65;2.33;;;;;;;;;;5046918;28;20027;-67
2023/08/14 06:44:12;;;;;;;7.53;2.60;;;;;;;;;;5044589;28;20027;-70
2023/08/14 06:46:38;;;;;;;6.28;2.53;;;;;;;;;;5042469;28;20033;-69
2023/08/14 06:49:06;;;;;;;7.97;2.33;;;;;;;;;;5040146;28;20040;-68
2023/08/14 06:51:35;;;;;;;7.43;2.70;;;;;;;;;;5048146;28;20024;-69
2023/08/14 06:54:00;;;;;;;4.55;2.13;;;;;;;;;;5046229;28;20435;-70
2023/08/14 06:56:25;;;;;;;9.60;1.95;;;;;;;;;;5048267;28;20498;-66
2023/08/14 06:58:51;;;;;;;8.75;2.35;;;;;;;;;;5046547;28;20434;-71
2023/08/14 07:01:16;;;;;;;10.03;2.53;;;;;;;;;;5046797;28;20091;-69
2023/08/14 07:03:41;;;;;;;5.68;2.28;;;;;;;;;;5048237;28;20262;-69
2023/08/14 07:06:07;;;;;;;11.80;2.58;;;;;;;;;;5043902;28;20085;-68
2023/08/14 07:08:33;;;;;;;6.90;3.20;;;;;;;;;;5045664;28;20102;-67
2023/08/14 07:10:58;;;;;;;8.27;2.28;;;;;;;;;;5044319;28;20053;-66
2023/08/14 07:13:23;;;;;;;7.32;2.00;;;;;;;;;;5041735;28;20070;-69
2023/08/14 07:15:48;;;;;;;11.03;2.87;;;;;;;;;;5047528;28;20056;-65
2023/08/14 07:18:18;;;;;;;6.85;2.05;;;;;;;;;;5045975;28;20262;-69
2023/08/14 07:20:45;;;;;;;6.47;2.35;;;;;;;;;;5047394;28;20164;-68
2023/08/14 07:23:10;;;;;;;7.38;2.60;;;;;;;;;;5046554;28;20017;-70
2023/08/14 07:25:35;;;;;;;4.80;1.98;;;;;;;;;;5044911;28;20027;-67
2023/08/14 07:28:01;;;;;;;7.93;1.95;;;;;;;;;;5041956;28;20040;-69
2023/08/14 07:30:26;;;;;;;7.03;2.17;;;;;;;;;;5030196;28;20025;-71
2023/08/14 07:32:51;;;;;;;4.55;1.83;;;;;;;;;;5032679;28;20270;-71
2023/08/14 07:35:16;;;;;;;5.63;2.17;;;;;;;;;;5029429;28;20112;-70
2023/08/14 07:37:41;;;;;;;6.78;2.20;;;;;;;;;;5032658;28;20089;-70
2023/08/14 07:40:07;;;;;;;11.27;2.30;;;;;;;;;;5031854;28;20479;-65
2023/08/14 07:42:32;;;;;;;6.97;2.03;;;;;;;;;;5031252;28;20317;-69
2023/08/14 07:44:57;;;;;;;5.50;1.65;;;;;;;;;;5029674;28;20111;-63
2023/08/14 07:47:23;;;;;;;10.77;2.10;;;;;;;;;;5031020;28;20013;-70
2023/08/14 07:49:48;;;;;;;4.63;2.33;;;;;;;;;;5032270;28;20282;-70
2023/08/14 07:52:13;;;;;;;6.20;2.00;;;;;;;;;;5042855;22;20080;-70
2023/08/14 07:54:39;;;;;;;4.95;1.80;;;;;;;;;;5010531;28;20033;-69
2023/08/14 07:57:04;;;;;;;5.32;2.10;;;;;;;;;;5015775;28;20053;-67
2023/08/14 07:59:29;;;;;;;7.57;1.95;;;;;;;;;;5014198;28;20021;-69
2023/08/14 08:01:54;;;;;;;7.35;2.22;;;;;;;;;;5016263;28;20024;-68
2023/08/14 08:04:20;;;;;;;4.25;2.00;;;;;;;;;;5013879;28;20498;-68
2023/08/14 08:06:45;;;;;;;4.95;1.77;;;;;;;;;;5016937;28;20022;-67
2023/08/14 08:09:11;;;;;;;6.13;2.10;;;;;;;;;;5017504;28;20064;-66
2023/08/14 08:11:36;;;;;;;12.20;2.25;;;;;;;;;;5018979;28;20470;-67
2023/08/14 08:14:05;;;;;;;8.07;2.25;;;;;;;;;;5012432;28;20045;-67
2023/08/14 08:16:34;;;;;;;;;;;;;;;;;;5019187;28;20060;-69
2023/08/14 08:19:00;;;;;;;8.00;1.80;;;;;;;;;;5019520;28;19905;-67
2023/08/14 08:21:25;;;;;;;5.30;1.95;;;;;;;;;;5018421;28;20028;-68
2023/08/14 08:23:50;;;;;;;7.13;2.00;;;;;;;;;;5014491;28;20021;-70
2023/08/14 08:26:15;;;;;;;8.05;2.47;;;;;;;;;;5017359;28;20651;-67
2023/08/14 08:28:40;;;;;;;8.60;2.13;;;;;;;;;;5014295;28;20025;-69
2023/08/14 08:31:06;;;;;;;6.03;2.33;;;;;;;;;;5012794;28;20064;-68
2023/08/14 08:33:31;;;;;;;4.50;2.30;;;;;;;;;;5017345;28;20277;-69
2023/08/14 08:35:56;;;;;;;4.80;1.80;;;;;;;;;;5015005;28;20025;-67
2023/08/14 08:38:21;;;;;;;5.60;2.50;;;;;;;;;;5016918;28;20258;-67
2023/08/14 08:40:48;;;;;;;6.93;2.03;;;;;;;;;;5018368;28;20382;-68
2023/08/14 08:43:14;;;;;;;6.68;1.98;;;;;;;;;;5013279;28;20283;-68
2023/08/14 08:45:40;;;;;;;4.78;1.98;;;;;;;;;;5014778;28;20292;-71
2023/08/14 08:48:07;;;;;;;5.15;1.83;;;;;;;;;;5014838;28;20033;-67
2023/08/14 08:50:33;;;;;;;7.85;2.25;;;;;;;;;;5016567;28;20021;-70
2023/08/14 08:52:58;;;;;;;7.22;2.38;;;;;;;;;;5015473;28;20418;-66
2023/08/14 08:55:23;;;;;;;3.70;1.88;;;;;;;;;;5012769;28;20070;-70
2023/08/14 08:57:49;;;;;;;5.88;2.00;;;;;;;;;;5011129;28;20026;-67
2023/08/14 09:00:15;;;;;;;9.55;2.00;;;;;;;;;;5011004;28;20020;-71
2023/08/14 09:02:40;;;;;;;11.10;2.78;;;;;;;;;;5010746;28;20030;-72
2023/08/14 09:05:05;;;;;;;6.55;2.00;;;;;;;;;;5016518;28;20107;-67
2023/08/14 09:07:32;;;;;;;5.32;2.13;;;;;;;;;;5013418;28;20029;-69
2023/08/14 09:09:57;;;;;;;7.72;2.42;;;;;;;;;;5016558;28;20092;-70
2023/08/14 09:12:22;;;;;;;6.60;2.42;;;;;;;;;;5016375;28;20096;-71
2023/08/14 09:15:05;;;;;;;8.85;2.28;;;;;;;;;;5013671;28;20037;-70
2023/08/14 09:17:30;;;;;;;7.47;2.63;;;;;;;;;;5018116;28;20029;-66
2023/08/14 09:19:55;;;;;;;6.43;2.30;;;;;;;;;;5012885;28;20026;-67
2023/08/14 09:22:21;;;;;;;4.80;1.88;;;;;;;;;;5015939;28;20113;-69
2023/08/14 09:24:47;;;;;;;4.78;2.10;;;;;;;;;;5012228;28;20113;-67
2023/08/14 09:27:13;;;;;;;3.97;2.10;;;;;;;;;;5017767;28;20042;-67
2023/08/14 09:29:38;;;;;;;4.93;1.85;;;;;;;;;;5016973;28;20044;-68
2023/08/14 09:32:04;;;;;;;7.00;2.35;;;;;;;;;;5016286;28;20112;-69
2023/08/14 09:34:30;;;;;;;5.07;1.98;;;;;;;;;;5010886;28;20513;-65
2023/08/14 09:36:57;;;;;;;4.80;2.30;;;;;;;;;;5011880;28;20024;-69
2023/08/14 09:39:23;;;;;;;4.25;1.92;;;;;;;;;;5012872;28;20024;-67
2023/08/14 09:41:49;;;;;;;13.65;2.10;;;;;;;;;;5016750;28;20036;-70
2023/08/14 09:44:14;;;;;;;8.43;1.92;;;;;;;;;;5015062;28;20470;-70
2023/08/14 09:46:40;;;;;;;6.40;1.90;;;;;;;;;;5015136;28;20025;-68
2023/08/14 09:49:05;;;;;;;8.85;1.98;;;;;;;;;;5012333;28;20061;-69
2023/08/14 09:51:31;;;;;;;8.68;2.03;;;;;;;;;;5011468;28;20041;-65
2023/08/14 09:53:57;;;;;;;14.55;2.20;;;;;;;;;;5012861;28;20036;-66
2023/08/14 09:56:23;;;;;;;9.40;2.47;;;;;;;;;;5012549;28;20009;-68
2023/08/14 09:58:48;;;;;;;8.75;2.47;;;;;;;;;;5014407;28;20032;-71
2023/08/14 10:01:14;;;;;;;6.90;2.83;;;;;;;;;;5015026;28;20156;-69
2023/08/14 10:03:43;;;;;;;3.38;1.70;;;;;;;;;;5013445;28;20040;-67
2023/08/14 10:06:13;;;;;;;10.38;2.30;;;;;;;;;;5012441;28;20024;-66
2023/08/14 10:08:39;;;;;;;5.95;1.95;;;;;;;;;;5015154;28;20030;-71
2023/08/14 10:11:05;;;;;;;5.32;2.38;;;;;;;;;;5013608;28;20071;-70
2023/08/14 10:13:32;;;;;;;3.97;1.98;;;;;;;;;;5013243;28;20025;-67
2023/08/14 10:15:59;;;;;;;4.75;1.98;;;;;;;;;;5012458;28;20028;-66
2023/08/14 10:18:28;;;;;;;5.20;2.20;;;;;;;;;;5014564;28;20107;-70
2023/08/14 10:20:54;;;;;;;5.65;1.95;;;;;;;;;;5009758;28;20044;-70
2023/08/14 10:23:20;;;;;;;10.90;2.40;;;;;;;;;;5015167;28;20116;-69
2023/08/14 10:25:50;;;;;;;12.02;3.03;;;;;;;;;;5012532;28;20072;-68
2023/08/14 10:28:16;;;;;;;4.72;2.08;;;;;;;;;;5014360;28;20467;-68
2023/08/14 10:30:41;;;;;;;9.30;2.10;;;;;;;;;;5013433;28;20034;-70
2023/08/14 10:33:07;;;;;;;6.20;2.17;;;;;;;;;;5013099;28;20442;-68
2023/08/14 10:35:53;;;;;;;8.80;2.20;;;;;;;;;;5010203;28;20034;-68
2023/08/14 10:38:19;;;;;;;5.53;2.15;;;;;;;;;;5013104;28;20540;-68
2023/08/14 10:41:03;;;;;;;5.95;2.00;;;;;;;;;;5017517;28;20029;-68
2023/08/14 10:43:29;;;;;;;4.68;2.10;;;;;;;;;;5009483;28;20083;-67
2023/08/14 10:45:54;;;;;;;7.32;2.20;;;;;;;;;;5013291;28;20025;-69
2023/08/14 10:48:20;;;;;;;10.48;2.53;;;;;;;;;;5013583;28;20022;-69
2023/08/14 10:50:47;;;;;;;7.50;2.42;;;;;;;;;;5010175;28;20022;-71
2023/08/14 10:53:13;;;;;;;8.57;2.50;;;;;;;;;;5012769;28;20045;-69
2023/08/14 10:55:43;;;;;;;6.63;1.92;;;;;;;;;;5012446;28;20119;-68
2023/08/14 10:58:28;;;;;;;6.57;2.20;;;;;;;;;;5015916;28;20576;-68
2023/08/14 11:00:53;;;;;;;6.75;2.35;;;;;;;;;;5015645;28;20040;-69
2023/08/14 11:03:18;;;;;;;8.82;2.60;;;;;;;;;;5013662;28;20054;-71
2023/08/14 11:05:44;;;;;;;7.20;2.60;;;;;;;;;;5013880;28;20287;-69
2023/08/14 11:08:10;;;;;;;7.63;2.35;;;;;;;;;;5012671;28;20032;-70
2023/08/14 11:10:36;;;;;;;12.85;2.80;;;;;;;;;;5012463;28;20562;-67
2023/08/14 11:13:01;;;;;;;14.45;3.42;;;;;;;;;;5010628;28;20057;-67
2023/08/14 11:15:29;;;;;;;27.35;2.85;;;;;;;;;;5009119;28;20019;-67
2023/08/14 11:17:54;;;;;;;9.57;3.20;;;;;;;;;;5010889;28;20018;-73
2023/08/14 11:20:20;;;;;;;7.50;2.92;;;;;;;;;;5012325;28;20026;-67
2023/08/14 11:22:45;;;;;;;12.35;3.65;;;;;;;;;;5011906;28;20025;-68
2023/08/14 11:25:15;;;;;;;8.95;2.40;;;;;;;;;;5012659;28;20035;-68
2023/08/14 11:27:40;;;;;;;12.75;2.78;;;;;;;;;;5012415;28;20026;-65
2023/08/14 11:30:06;;;;;;;7.20;2.40;;;;;;;;;;5013920;28;20038;-67
2023/08/14 11:32:31;;;;;;;5.63;2.20;;;;;;;;;;5017167;28;20034;-68
2023/08/14 11:34:56;;;;;;;8.63;2.43;;;;;;;;;;5014991;28;20094;-69
2023/08/14 11:37:21;;;;;;;9.90;2.60;;;;;;;;;;5017154;28;20263;-68
2023/08/14 11:39:47;;;;;;;9.97;2.67;;;;;;;;;;5016808;28;20022;-68
2023/08/14 11:42:12;;;;;;;7.53;2.40;;;;;;;;;;5018228;28;20259;-68
2023/08/14 11:44:37;;;;;;;7.75;2.30;;;;;;;;;;5013447;28;21326;-70
2023/08/14 11:47:03;;;;;;;5.85;2.47;;;;;;;;;;5018541;28;20028;-69
2023/08/14 11:49:30;;;;;;;13.77;2.90;;;;;;;;;;5012919;28;20097;-69
2023/08/14 11:51:56;;;;;;;11.60;2.17;;;;;;;;;;5012318;28;20503;-72
2023/08/14 11:54:21;;;;;;;6.65;2.30;;;;;;;;;;5015605;28;20033;-70
2023/08/14 11:56:47;;;;;;;9.18;2.85;;;;;;;;;;5020838;28;20037;-67
2023/08/14 11:59:12;;;;;;;6.35;2.15;;;;;;;;;;5010661;28;20569;-70
2023/08/14 12:01:37;;;;;;;7.57;2.63;;;;;;;;;;5015909;28;20109;-70
2023/08/14 12:04:03;;;;;;;8.13;2.72;;;;;;;;;;5019255;28;20287;-70
2023/08/14 12:06:29;;;;;;;11.27;2.55;;;;;;;;;;5017864;28;20021;-67
2023/08/14 12:08:54;;;;;;;10.77;2.92;;;;;;;;;;5015591;28;20036;-69
2023/08/14 12:11:20;;;;;;;7.15;2.28;;;;;;;;;;5015898;28;20013;-68
2023/08/14 12:13:51;;;;;;;7.10;3.20;;;;;;;;;;5017209;28;20029;-70
2023/08/14 12:16:17;;;;;;;12.52;2.60;;;;;;;;;;5015894;28;20388;-69
2023/08/14 12:18:45;;;;;;;6.53;2.58;;;;;;;;;;5015762;28;20034;-69
2023/08/14 12:21:11;;;;;;;8.70;3.30;;;;;;;;;;5021477;28;20045;-65
2023/08/14 12:23:36;;;;;;;4.85;2.35;;;;;;;;;;5013615;28;20034;-69
2023/08/14 12:26:01;;;;;;;9.37;2.90;;;;;;;;;;5014926;28;20128;-70
2023/08/14 12:28:27;;;;;;;12.75;2.90;;;;;;;;;;5013853;28;21653;-70
2023/08/14 12:30:53;;;;;;;5.07;2.50;;;;;;;;;;5013833;28;20125;-67
2023/08/14 12:33:18;;;;;;;5.67;2.50;;;;;;;;;;5016772;28;20434;-70
2023/08/14 12:35:43;;;;;;;4.93;2.35;;;;;;;;;;5013032;28;20923;-67
2023/08/14 12:38:09;;;;;;;5.85;2.97;;;;;;;;;;5015144;28;20033;-68
2023/08/14 12:40:35;;;;;;;22.92;2.90;;;;;;;;;;5013715;28;20034;-66
2023/08/14 12:43:00;;;;;;;7.75;3.17;;;;;;;;;;5011340;28;20029;-70
2023/08/14 12:45:25;;;;;;;5.32;2.40;;;;;;;;;;5014520;28;20018;-68
2023/08/14 12:47:51;;;;;;;6.82;2.53;;;;;;;;;;5011337;28;20483;-68
2023/08/14 12:50:16;;;;;;;5.60;2.55;;;;;;;;;;5013819;28;20029;-68
2023/08/14 12:52:41;;;;;;;7.43;2.20;;;;;;;;;;5012897;28;20033;-69
2023/08/14 12:55:06;;;;;;;9.13;2.90;;;;;;;;;;5013840;28;20254;-69
2023/08/14 12:57:32;;;;;;;10.02;2.72;;;;;;;;;;5014894;28;20029;-69
2023/08/14 12:59:57;;;;;;;9.35;2.88;;;;;;;;;;5017143;28;20023;-69
2023/08/14 13:02:23;;;;;;;15.43;2.97;;;;;;;;;;5013583;28;20112;-67
2023/08/14 13:04:48;;;;;;;13.55;2.78;;;;;;;;;;5015289;28;20026;-66
2023/08/14 13:07:13;;;;;;;9.67;2.57;;;;;;;;;;5014877;28;20049;-67
2023/08/14 13:09:39;;;;;;;6.97;2.60;;;;;;;;;;5016196;28;20260;-69
2023/08/14 13:12:04;;;;;;;7.23;2.60;;;;;;;;;;5029409;28;20009;-67
2023/08/14 13:14:29;;;;;;;7.47;2.40;;;;;;;;;;5028826;28;20252;-69
2023/08/14 13:16:55;;;;;;;15.27;2.53;;;;;;;;;;5030473;28;20041;-68
2023/08/14 13:19:20;;;;;;;9.90;3.03;;;;;;;;;;5028810;28;20604;-67
2023/08/14 13:21:45;;;;;;;5.00;2.33;;;;;;;;;;5021614;28;20255;-68
2023/08/14 13:24:10;;;;;;;8.90;2.80;;;;;;;;;;5024076;28;20321;-68
2023/08/14 13:26:36;;;;;;;10.97;2.87;;;;;;;;;;5030643;28;20866;-67
2023/08/14 13:29:01;;;;;;;5.72;2.63;;;;;;;;;;5031019;28;20273;-69
2023/08/14 13:31:27;;;;;;;14.90;3.50;;;;;;;;;;5031128;28;20009;-64
2023/08/14 13:33:52;;;;;;;6.93;3.00;;;;;;;;;;5022462;28;20010;-67
2023/08/14 13:36:18;;;;;;;9.00;2.60;;;;;;;;;;5016735;28;20046;-69
2023/08/14 13:38:43;;;;;;;8.38;2.63;;;;;;;;;;5029874;28;20628;-67
2023/08/14 13:41:10;;;;;;;11.00;2.53;;;;;;;;;;5031177;28;20101;-68
2023/08/14 13:43:35;;;;;;;8.98;2.50;;;;;;;;;;5030294;28;20321;-66
2023/08/14 13:46:00;;;;;;;9.70;2.70;;;;;;;;;;5030755;28;20021;-67
2023/08/14 13:48:26;;;;;;;9.68;2.70;;;;;;;;;;5030969;28;20017;-64
2023/08/14 13:50:51;;;;;;;8.85;2.35;;;;;;;;;;5029484;28;20516;-70
2023/08/14 13:53:16;;;;;;;4.17;2.17;;;;;;;;;;5042300;22;20053;-70
2023/08/14 13:55:43;;;;;;;5.35;2.22;;;;;;;;;;5026515;28;20255;-67
2023/08/14 13:58:09;;;;;;;5.53;2.45;;;;;;;;;;5047748;28;20120;-69
2023/08/14 14:00:34;;;;;;;9.70;2.08;;;;;;;;;;5036772;28;20028;-67
2023/08/14 14:02:59;;;;;;;5.90;2.33;;;;;;;;;;5028712;28;20033;-68
2023/08/14 14:05:24;;;;;;;6.45;2.05;;;;;;;;;;5028707;28;20247;-70
2023/08/14 14:07:50;;;;;;;6.30;2.25;;;;;;;;;;5047025;28;20338;-71
2023/08/14 14:10:15;;;;;;;7.60;2.53;;;;;;;;;;5033561;28;20088;-69
2023/08/14 14:12:40;;;;;;;5.32;2.33;;;;;;;;;;5028591;28;20420;-69
2023/08/14 14:15:06;;;;;;;5.72;2.75;;;;;;;;;;5028942;28;20037;-69
2023/08/14 14:17:31;;;;;;;5.90;2.55;;;;;;;;;;5042125;28;20110;-67
2023/08/14 14:19:56;;;;;;;11.10;2.80;;;;;;;;;;5028545;28;20017;-69
2023/08/14 14:22:21;;;;;;;8.87;2.97;;;;;;;;;;5027736;28;20017;-66
2023/08/14 14:24:47;;;;;;;9.37;2.57;;;;;;;;;;5026638;28;20835;-70
2023/08/14 14:27:12;;;;;;;11.30;2.35;;;;;;;;;;5027766;28;20301;-68
2023/08/14 14:29:38;;;;;;;6.57;2.17;;;;;;;;;;5026575;28;20024;-67
2023/08/14 14:32:03;;;;;;;4.95;1.35;;;;;;;;;;5041276;28;20052;-68
2023/08/14 14:34:28;;;;;;;5.50;1.60;;;;;;;;;;5015527;28;20447;-68
2023/08/14 14:36:54;;;;;;;3.95;1.52;;;;;;;;;;5026863;28;20052;-68